sensor_id;sensor_type;location;lat;lon;timestamp;pressure;altitude;pressure_sealevel;temperature;humidity
29315;BME280;16320;53.954;9.506;2022-08-19T00:02:00;101248.66;;;19.04;100.00
29315;BME280;16320;53.954;9.506;2022-08-19T00:05:05;101247.72;;;19.05;100.00
29315;BME280;16320;53.954;9.506;2022-08-19T00:08:10;101251.47;;;19.02;100.00
29315;BME280;16320;53.954;9.506;2022-08-19T00:11:14;101266.59;;;19.02;100.00
29315;BME280;16320;53.954;9.506;2022-08-19T00:14:30;101253.50;;;18.99;100.00
29315;BME280;16320;53.954;9.506;2022-08-19T00:17:36;101260.66;;;18.98;100.00
29315;BME280;16320;53.954;9.506;2022-08-19T00:20:45;101246.28;;;19.01;100.00
29315;BME280;16320;53.954;9.506;2022-08-19T00:23:49;101227.88;;;18.98;100.00
29315;BME280;16320;53.954;9.506;2022-08-19T00:26:55;101218.44;;;18.94;100.00
29315;BME280;16320;53.954;9.506;2022-08-19T00:30:20;101216.38;;;18.97;100.00
29315;BME280;16320;53.954;9.506;2022-08-19T00:33:25;101215.78;;;18.94;100.00
29315;BME280;16320;53.954;9.506;2022-08-19T00:36:33;101223.03;;;18.92;100.00
29315;BME280;16320;53.954;9.506;2022-08-19T00:39:38;101231.03;;;18.92;100.00
29315;BME280;16320;53.954;9.506;2022-08-19T00:42:42;101226.53;;;18.92;100.00
29315;BME280;16320;53.954;9.506;2022-08-19T00:45:48;101222.22;;;18.91;100.00
29315;BME280;16320;53.954;9.506;2022-08-19T00:48:54;101214.34;;;18.90;100.00
29315;BME280;16320;53.954;9.506;2022-08-19T00:55:09;101202.94;;;18.88;100.00
29315;BME280;16320;53.954;9.506;2022-08-19T00:58:20;101201.28;;;18.87;100.00
29315;BME280;16320;53.954;9.506;2022-08-19T01:01:26;101203.06;;;18.86;100.00
29315;BME280;16320;53.954;9.506;2022-08-19T01:04:30;101199.56;;;18.86;100.00
29315;BME280;16320;53.954;9.506;2022-08-19T01:07:35;101200.28;;;18.88;100.00
29315;BME280;16320;53.954;9.506;2022-08-19T01:10:56;101196.91;;;18.86;100.00
29315;BME280;16320;53.954;9.506;2022-08-19T01:14:00;101204.16;;;18.83;100.00
29315;BME280;16320;53.954;9.506;2022-08-19T01:17:09;101206.22;;;18.80;100.00
29315;BME280;16320;53.954;9.506;2022-08-19T01:20:20;101195.44;;;18.81;100.00
29315;BME280;16320;53.954;9.506;2022-08-19T01:23:25;101199.53;;;18.74;100.00
29315;BME280;16320;53.954;9.506;2022-08-19T01:26:47;101213.56;;;18.76;100.00
29315;BME280;16320;53.954;9.506;2022-08-19T01:29:52;101212.84;;;18.74;100.00
29315;BME280;16320;53.954;9.506;2022-08-19T01:32:57;101211.13;;;18.73;100.00
29315;BME280;16320;53.954;9.506;2022-08-19T01:36:11;101212.25;;;18.82;100.00
29315;BME280;16320;53.954;9.506;2022-08-19T01:39:22;101201.00;;;18.78;100.00
29315;BME280;16320;53.954;9.506;2022-08-19T01:42:27;101198.47;;;18.77;100.00
29315;BME280;16320;53.954;9.506;2022-08-19T01:45:35;101198.34;;;18.78;100.00
29315;BME280;16320;53.954;9.506;2022-08-19T01:48:42;101187.06;;;18.75;100.00
29315;BME280;16320;53.954;9.506;2022-08-19T01:51:48;101188.88;;;18.74;100.00
29315;BME280;16320;53.954;9.506;2022-08-19T01:54:53;101192.50;;;18.73;100.00
29315;BME280;16320;53.954;9.506;2022-08-19T01:58:00;101181.88;;;18.73;100.00
29315;BME280;16320;53.954;9.506;2022-08-19T02:01:06;101179.34;;;18.72;100.00
29315;BME280;16320;53.954;9.506;2022-08-19T02:04:11;101180.56;;;18.67;100.00
29315;BME280;16320;53.954;9.506;2022-08-19T02:07:20;101179.94;;;18.64;100.00
29315;BME280;16320;53.954;9.506;2022-08-19T02:10:25;101177.88;;;18.67;100.00
29315;BME280;16320;53.954;9.506;2022-08-19T02:13:30;101178.84;;;18.66;100.00
29315;BME280;16320;53.954;9.506;2022-08-19T02:16:36;101177.06;;;18.67;100.00
29315;BME280;16320;53.954;9.506;2022-08-19T02:19:41;101180.44;;;18.69;100.00
29315;BME280;16320;53.954;9.506;2022-08-19T02:22:45;101167.00;;;18.71;100.00
29315;BME280;16320;53.954;9.506;2022-08-19T02:25:51;101164.47;;;18.69;100.00
29315;BME280;16320;53.954;9.506;2022-08-19T02:28:56;101154.06;;;18.66;100.00
29315;BME280;16320;53.954;9.506;2022-08-19T02:32:00;101139.31;;;18.62;100.00
29315;BME280;16320;53.954;9.506;2022-08-19T02:35:06;101132.41;;;18.59;100.00
29315;BME280;16320;53.954;9.506;2022-08-19T02:38:16;101141.34;;;18.58;100.00
29315;BME280;16320;53.954;9.506;2022-08-19T02:41:32;101151.41;;;18.55;100.00
29315;BME280;16320;53.954;9.506;2022-08-19T02:44:36;101147.78;;;18.56;100.00
29315;BME280;16320;53.954;9.506;2022-08-19T02:47:41;101153.09;;;18.56;100.00
29315;BME280;16320;53.954;9.506;2022-08-19T02:50:49;101143.44;;;18.55;100.00
29315;BME280;16320;53.954;9.506;2022-08-19T02:53:59;101147.19;;;18.52;100.00
29315;BME280;16320;53.954;9.506;2022-08-19T02:57:05;101139.06;;;18.54;100.00
29315;BME280;16320;53.954;9.506;2022-08-19T03:00:10;101148.03;;;18.53;100.00
29315;BME280;16320;53.954;9.506;2022-08-19T03:03:18;101139.31;;;18.51;100.00
29315;BME280;16320;53.954;9.506;2022-08-19T03:06:23;101137.63;;;18.50;100.00
29315;BME280;16320;53.954;9.506;2022-08-19T03:09:28;101137.63;;;18.50;100.00
29315;BME280;16320;53.954;9.506;2022-08-19T03:12:38;101136.78;;;18.49;100.00
29315;BME280;16320;53.954;9.506;2022-08-19T03:15:46;101134.38;;;18.46;100.00
29315;BME280;16320;53.954;9.506;2022-08-19T03:18:52;101143.19;;;18.46;100.00
29315;BME280;16320;53.954;9.506;2022-08-19T03:21:57;101144.88;;;18.47;100.00
29315;BME280;16320;53.954;9.506;2022-08-19T03:25:03;101143.41;;;18.43;100.00
29315;BME280;16320;53.954;9.506;2022-08-19T03:28:12;101137.03;;;18.46;100.00
29315;BME280;16320;53.954;9.506;2022-08-19T03:31:19;101141.34;;;18.47;100.00
29315;BME280;16320;53.954;9.506;2022-08-19T03:34:46;101137.16;;;18.44;100.00
29315;BME280;16320;53.954;9.506;2022-08-19T03:37:50;101148.50;;;18.46;100.00
29315;BME280;16320;53.954;9.506;2022-08-19T03:40:55;101144.00;;;18.47;100.00
29315;BME280;16320;53.954;9.506;2022-08-19T03:43:59;101139.56;;;18.47;100.00
29315;BME280;16320;53.954;9.506;2022-08-19T03:47:04;101139.56;;;18.47;100.00
29315;BME280;16320;53.954;9.506;2022-08-19T03:50:09;101148.38;;;18.48;100.00
29315;BME280;16320;53.954;9.506;2022-08-19T03:53:14;101158.31;;;18.46;100.00
29315;BME280;16320;53.954;9.506;2022-08-19T03:56:20;101171.59;;;18.46;100.00
29315;BME280;16320;53.954;9.506;2022-08-19T03:59:33;101183.19;;;18.45;100.00
29315;BME280;16320;53.954;9.506;2022-08-19T04:02:40;101196.59;;;18.43;100.00
29315;BME280;16320;53.954;9.506;2022-08-19T04:09:15;101188.88;;;18.52;100.00
29315;BME280;16320;53.954;9.506;2022-08-19T04:12:19;101192.53;;;18.51;100.00
29315;BME280;16320;53.954;9.506;2022-08-19T04:15:24;101201.47;;;18.50;100.00
29315;BME280;16320;53.954;9.506;2022-08-19T04:18:28;101204.84;;;18.52;100.00
29315;BME280;16320;53.954;9.506;2022-08-19T04:21:40;101222.28;;;18.56;100.00
29315;BME280;16320;53.954;9.506;2022-08-19T04:24:46;101222.28;;;18.56;100.00
29315;BME280;16320;53.954;9.506;2022-08-19T04:27:50;101224.19;;;18.54;100.00
29315;BME280;16320;53.954;9.506;2022-08-19T04:30:55;101210.75;;;18.55;100.00
29315;BME280;16320;53.954;9.506;2022-08-19T04:34:04;101213.94;;;18.60;100.00
29315;BME280;16320;53.954;9.506;2022-08-19T04:37:08;101222.88;;;18.59;100.00
29315;BME280;16320;53.954;9.506;2022-08-19T04:40:17;101231.19;;;18.55;100.00
29315;BME280;16320;53.954;9.506;2022-08-19T04:43:40;101233.41;;;18.61;100.00
29315;BME280;16320;53.954;9.506;2022-08-19T04:46:49;101232.91;;;18.56;100.00
29315;BME280;16320;53.954;9.506;2022-08-19T04:49:55;101233.50;;;18.59;100.00
29315;BME280;16320;53.954;9.506;2022-08-19T04:52:59;101236.53;;;18.66;100.00
29315;BME280;16320;53.954;9.506;2022-08-19T04:56:13;101241.50;;;18.59;100.00
29315;BME280;16320;53.954;9.506;2022-08-19T04:59:19;101241.00;;;18.54;100.00
29315;BME280;16320;53.954;9.506;2022-08-19T05:02:24;101242.56;;;18.57;100.00
29315;BME280;16320;53.954;9.506;2022-08-19T05:05:29;101250.06;;;18.63;100.00
29315;BME280;16320;53.954;9.506;2022-08-19T05:08:49;101256.88;;;18.67;100.00
29315;BME280;16320;53.954;9.506;2022-08-19T05:11:54;101246.47;;;18.64;100.00
29315;BME280;16320;53.954;9.506;2022-08-19T05:14:59;101251.78;;;18.64;100.00
29315;BME280;16320;53.954;9.506;2022-08-19T05:18:04;101250.78;;;18.65;100.00
29315;BME280;16320;53.954;9.506;2022-08-19T05:21:29;101250.06;;;18.63;100.00
29315;BME280;16320;53.954;9.506;2022-08-19T05:24:51;101248.13;;;18.65;100.00
29315;BME280;16320;53.954;9.506;2022-08-19T05:28:16;101250.69;;;18.66;100.00
29315;BME280;16320;53.954;9.506;2022-08-19T05:31:21;101255.41;;;18.63;100.00
29315;BME280;16320;53.954;9.506;2022-08-19T05:34:27;101253.22;;;18.68;100.00
29315;BME280;16320;53.954;9.506;2022-08-19T05:37:31;101254.69;;;18.72;100.00
29315;BME280;16320;53.954;9.506;2022-08-19T05:40:37;101249.97;;;18.76;100.00
29315;BME280;16320;53.954;9.506;2022-08-19T05:43:41;101267.75;;;18.75;100.00
29315;BME280;16320;53.954;9.506;2022-08-19T05:46:46;101267.75;;;18.75;100.00
29315;BME280;16320;53.954;9.506;2022-08-19T05:49:51;101261.69;;;18.73;100.00
29315;BME280;16320;53.954;9.506;2022-08-19T05:52:55;101260.63;;;18.76;100.00
29315;BME280;16320;53.954;9.506;2022-08-19T05:56:11;101244.88;;;18.73;100.00
29315;BME280;16320;53.954;9.506;2022-08-19T05:59:17;101241.63;;;18.69;100.00
29315;BME280;16320;53.954;9.506;2022-08-19T06:02:22;101246.94;;;18.69;100.00
29315;BME280;16320;53.954;9.506;2022-08-19T06:05:26;101253.84;;;18.72;100.00
29315;BME280;16320;53.954;9.506;2022-08-19T06:08:31;101248.91;;;18.78;100.00
29315;BME280;16320;53.954;9.506;2022-08-19T06:11:55;101255.41;;;18.74;100.00
29315;BME280;16320;53.954;9.506;2022-08-19T06:15:06;101258.19;;;18.73;100.00
29315;BME280;16320;53.954;9.506;2022-08-19T06:18:10;101261.69;;;18.73;100.00
29315;BME280;16320;53.954;9.506;2022-08-19T06:21:15;101266.53;;;18.79;100.00
29315;BME280;16320;53.954;9.506;2022-08-19T06:24:23;101267.53;;;18.78;100.00
29315;BME280;16320;53.954;9.506;2022-08-19T06:27:29;101266.78;;;18.76;100.00
29315;BME280;16320;53.954;9.506;2022-08-19T06:30:36;101261.47;;;18.76;100.00
29315;BME280;16320;53.954;9.506;2022-08-19T06:33:43;101259.53;;;18.78;100.00
29315;BME280;16320;53.954;9.506;2022-08-19T06:36:49;101263.75;;;18.81;100.00
29315;BME280;16320;53.954;9.506;2022-08-19T06:39:55;101260.78;;;18.86;100.00
29315;BME280;16320;53.954;9.506;2022-08-19T06:42:59;101257.47;;;18.82;100.00
29315;BME280;16320;53.954;9.506;2022-08-19T06:46:16;101253.75;;;18.84;100.00
29315;BME280;16320;53.954;9.506;2022-08-19T06:49:22;101255.09;;;18.90;100.00
29315;BME280;16320;53.954;9.506;2022-08-19T06:52:27;101247.00;;;18.92;100.00
29315;BME280;16320;53.954;9.506;2022-08-19T06:55:31;101242.28;;;18.95;100.00
29315;BME280;16320;53.954;9.506;2022-08-19T06:58:36;101235.13;;;18.96;100.00
29315;BME280;16320;53.954;9.506;2022-08-19T07:01:49;101245.88;;;18.94;100.00
29315;BME280;16320;53.954;9.506;2022-08-19T07:04:54;101251.84;;;18.98;100.00
29315;BME280;16320;53.954;9.506;2022-08-19T07:08:02;101266.81;;;18.99;100.00
29315;BME280;16320;53.954;9.506;2022-08-19T07:11:12;101273.03;;;18.99;100.00
29315;BME280;16320;53.954;9.506;2022-08-19T07:14:21;101272.28;;;18.97;100.00
29315;BME280;16320;53.954;9.506;2022-08-19T07:17:26;101283.03;;;18.96;100.00
29315;BME280;16320;53.954;9.506;2022-08-19T07:20:31;101290.31;;;18.94;100.00
29315;BME280;16320;53.954;9.506;2022-08-19T07:23:37;101291.03;;;18.96;100.00
29315;BME280;16320;53.954;9.506;2022-08-19T07:26:43;101288.63;;;18.93;100.00
29315;BME280;16320;53.954;9.506;2022-08-19T07:29:48;101291.78;;;18.98;100.00
29315;BME280;16320;53.954;9.506;2022-08-19T07:32:59;101283.31;;;18.93;100.00
29315;BME280;16320;53.954;9.506;2022-08-19T07:36:09;101282.31;;;18.94;100.00
29315;BME280;16320;53.954;9.506;2022-08-19T07:39:24;101279.78;;;18.92;100.00
29315;BME280;16320;53.954;9.506;2022-08-19T07:42:29;101288.63;;;18.93;100.00
29315;BME280;16320;53.954;9.506;2022-08-19T07:45:35;101293.94;;;18.93;100.00
29315;BME280;16320;53.954;9.506;2022-08-19T07:48:44;101290.53;;;18.91;100.00
29315;BME280;16320;53.954;9.506;2022-08-19T07:51:59;101292.00;;;18.95;100.00
29315;BME280;16320;53.954;9.506;2022-08-19T07:55:09;101298.88;;;18.97;100.00
29315;BME280;16320;53.954;9.506;2022-08-19T07:58:38;101298.88;;;18.97;100.00
29315;BME280;16320;53.954;9.506;2022-08-19T08:01:44;101309.19;;;19.02;100.00
29315;BME280;16320;53.954;9.506;2022-08-19T08:04:49;101314.63;;;19.00;100.00
29315;BME280;16320;53.954;9.506;2022-08-19T08:08:13;101319.59;;;19.05;100.00
29315;BME280;16320;53.954;9.506;2022-08-19T08:12:03;101317.88;;;19.04;100.00
29315;BME280;16320;53.954;9.506;2022-08-19T08:15:30;101313.44;;;19.05;100.00
29315;BME280;16320;53.954;9.506;2022-08-19T08:18:34;101326.13;;;19.01;100.00
29315;BME280;16320;53.954;9.506;2022-08-19T08:21:45;101322.25;;;19.05;100.00
29315;BME280;16320;53.954;9.506;2022-08-19T08:24:50;101320.69;;;19.02;100.00
29315;BME280;16320;53.954;9.506;2022-08-19T08:27:54;101327.22;;;18.98;100.00
29315;BME280;16320;53.954;9.506;2022-08-19T08:31:01;101338.34;;;19.03;100.00
29315;BME280;16320;53.954;9.506;2022-08-19T08:34:13;101336.28;;;19.07;100.00
29315;BME280;16320;53.954;9.506;2022-08-19T08:37:18;101340.53;;;19.10;100.00
29315;BME280;16320;53.954;9.506;2022-08-19T08:43:38;101345.03;;;19.20;100.00
29315;BME280;16320;53.954;9.506;2022-08-19T08:46:51;101345.03;;;19.20;100.00
29315;BME280;16320;53.954;9.506;2022-08-19T08:53:14;101342.50;;;19.19;100.00
29315;BME280;16320;53.954;9.506;2022-08-19T08:56:33;101343.44;;;19.18;100.00
29315;BME280;16320;53.954;9.506;2022-08-19T08:59:40;101339.94;;;19.17;100.00
29315;BME280;16320;53.954;9.506;2022-08-19T09:02:45;101334.50;;;19.19;100.00
29315;BME280;16320;53.954;9.506;2022-08-19T09:06:03;101330.13;;;19.18;100.00
29315;BME280;16320;53.954;9.506;2022-08-19T09:09:19;101332.31;;;19.13;100.00
29315;BME280;16320;53.954;9.506;2022-08-19T09:13:04;101333.75;;;19.17;100.00
29315;BME280;16320;53.954;9.506;2022-08-19T09:16:18;101327.34;;;19.19;100.00
29315;BME280;16320;53.954;9.506;2022-08-19T09:19:31;101339.44;;;19.24;100.00
29315;BME280;16320;53.954;9.506;2022-08-19T09:22:38;101338.59;;;19.23;100.00
29315;BME280;16320;53.954;9.506;2022-08-19T09:25:43;101343.56;;;19.28;100.00
29315;BME280;16320;53.954;9.506;2022-08-19T09:28:51;101345.75;;;19.34;100.00
29315;BME280;16320;53.954;9.506;2022-08-19T09:31:57;101340.91;;;19.39;100.00
29315;BME280;16320;53.954;9.506;2022-08-19T09:35:02;101348.19;;;19.48;100.00
29315;BME280;16320;53.954;9.506;2022-08-19T09:38:21;101332.31;;;19.47;100.00
29315;BME280;16320;53.954;9.506;2022-08-19T09:41:26;101336.78;;;19.46;100.00
29315;BME280;16320;53.954;9.506;2022-08-19T09:44:33;101335.81;;;19.47;100.00
29315;BME280;16320;53.954;9.506;2022-08-19T09:47:45;101338.25;;;19.50;100.00
29315;BME280;16320;53.954;9.506;2022-08-19T09:50:51;101343.06;;;19.56;100.00
29315;BME280;16320;53.954;9.506;2022-08-19T09:54:01;101331.94;;;19.63;100.00
29315;BME280;16320;53.954;9.506;2022-08-19T09:57:08;101337.38;;;19.72;100.00
29315;BME280;16320;53.954;9.506;2022-08-19T10:00:13;101316.88;;;19.73;100.00
29315;BME280;16320;53.954;9.506;2022-08-19T10:03:25;101317.84;;;19.72;100.00
29315;BME280;16320;53.954;9.506;2022-08-19T10:06:35;101309.84;;;19.72;100.00
29315;BME280;16320;53.954;9.506;2022-08-19T10:09:50;101318.09;;;19.69;100.00
29315;BME280;16320;53.954;9.506;2022-08-19T10:12:57;101326.59;;;19.74;100.00
29315;BME280;16320;53.954;9.506;2022-08-19T10:16:14;101329.63;;;19.69;100.00
29315;BME280;16320;53.954;9.506;2022-08-19T10:19:22;101333.84;;;19.72;100.00
29315;BME280;16320;53.954;9.506;2022-08-19T10:22:40;101332.66;;;19.65;100.00
29315;BME280;16320;53.954;9.506;2022-08-19T10:25:53;101328.41;;;19.62;100.00
29315;BME280;16320;53.954;9.506;2022-08-19T10:29:04;101330.69;;;19.67;100.00
29315;BME280;16320;53.954;9.506;2022-08-19T10:32:13;101341.72;;;19.73;100.00
29315;BME280;16320;53.954;9.506;2022-08-19T10:35:28;101338.72;;;19.78;100.00
29315;BME280;16320;53.954;9.506;2022-08-19T10:39:10;101328.88;;;19.79;100.00
29315;BME280;16320;53.954;9.506;2022-08-19T10:42:32;101329.59;;;19.92;100.00
29315;BME280;16320;53.954;9.506;2022-08-19T10:45:48;101315.03;;;19.96;100.00
29315;BME280;16320;53.954;9.506;2022-08-19T10:48:56;101306.91;;;19.98;100.00
29315;BME280;16320;53.954;9.506;2022-08-19T10:52:01;101299.50;;;20.01;100.00
29315;BME280;16320;53.954;9.506;2022-08-19T10:55:35;101297.16;;;20.08;100.00
29315;BME280;16320;53.954;9.506;2022-08-19T10:58:59;101290.88;;;20.09;100.00
29315;BME280;16320;53.954;9.506;2022-08-19T11:02:07;101286.56;;;20.18;100.00
29315;BME280;16320;53.954;9.506;2022-08-19T11:05:19;101277.94;;;20.25;100.00
29315;BME280;16320;53.954;9.506;2022-08-19T11:08:34;101287.25;;;20.31;100.00
29315;BME280;16320;53.954;9.506;2022-08-19T11:11:54;101308.69;;;20.41;100.00
29315;BME280;16320;53.954;9.506;2022-08-19T11:15:24;101297.75;;;20.44;100.00
29315;BME280;16320;53.954;9.506;2022-08-19T11:18:52;101281.66;;;20.55;100.00
29315;BME280;16320;53.954;9.506;2022-08-19T11:22:02;101280.13;;;20.74;100.00
29315;BME280;16320;53.954;9.506;2022-08-19T11:25:10;101272.50;;;21.00;100.00
29315;BME280;16320;53.954;9.506;2022-08-19T11:28:15;101243.72;;;21.03;100.00
29315;BME280;16320;53.954;9.506;2022-08-19T11:31:24;101253.72;;;21.11;100.00
29315;BME280;16320;53.954;9.506;2022-08-19T11:34:32;101246.38;;;21.03;100.00
29315;BME280;16320;53.954;9.506;2022-08-19T11:37:37;101270.16;;;21.07;100.00
29315;BME280;16320;53.954;9.506;2022-08-19T11:40:42;101247.81;;;21.08;100.00
29315;BME280;16320;53.954;9.506;2022-08-19T11:43:47;101242.22;;;21.11;100.00
29315;BME280;16320;53.954;9.506;2022-08-19T11:46:52;101237.13;;;21.08;100.00
29315;BME280;16320;53.954;9.506;2022-08-19T11:49:59;101241.78;;;21.06;100.00
29315;BME280;16320;53.954;9.506;2022-08-19T11:53:11;101255.38;;;21.02;100.00
29315;BME280;16320;53.954;9.506;2022-08-19T11:56:38;101238.91;;;20.97;100.00
29315;BME280;16320;53.954;9.506;2022-08-19T11:59:51;101248.34;;;21.01;100.00
29315;BME280;16320;53.954;9.506;2022-08-19T12:03:00;101227.81;;;21.02;100.00
29315;BME280;16320;53.954;9.506;2022-08-19T12:06:09;101247.66;;;20.99;100.00
29315;BME280;16320;53.954;9.506;2022-08-19T12:09:20;101263.41;;;21.02;100.00
29315;BME280;16320;53.954;9.506;2022-08-19T12:12:40;101268.00;;;21.00;100.00
29315;BME280;16320;53.954;9.506;2022-08-19T12:16:15;101267.75;;;21.03;100.00
29315;BME280;16320;53.954;9.506;2022-08-19T12:19:32;101285.06;;;21.09;100.00
29315;BME280;16320;53.954;9.506;2022-08-19T12:22:39;101288.28;;;21.03;100.00
29315;BME280;16320;53.954;9.506;2022-08-19T12:25:51;101286.03;;;21.08;100.00
29315;BME280;16320;53.954;9.506;2022-08-19T12:29:08;101263.31;;;21.14;100.00
29315;BME280;16320;53.954;9.506;2022-08-19T12:32:19;101246.00;;;21.18;100.00
29315;BME280;16320;53.954;9.506;2022-08-19T12:36:03;101231.25;;;21.14;100.00
29315;BME280;16320;53.954;9.506;2022-08-19T12:40:35;101248.81;;;21.16;100.00
29315;BME280;16320;53.954;9.506;2022-08-19T12:44:26;101260.19;;;21.18;100.00
29315;BME280;16320;53.954;9.506;2022-08-19T12:47:47;101246.97;;;21.17;100.00
29315;BME280;16320;53.954;9.506;2022-08-19T12:51:10;101251.09;;;21.21;100.00
29315;BME280;16320;53.954;9.506;2022-08-19T12:54:25;101260.06;;;21.20;100.00
29315;BME280;16320;53.954;9.506;2022-08-19T12:57:42;101267.53;;;21.26;100.00
29315;BME280;16320;53.954;9.506;2022-08-19T13:00:52;101268.72;;;21.33;100.00
29315;BME280;16320;53.954;9.506;2022-08-19T13:04:10;101267.44;;;21.37;100.00
29315;BME280;16320;53.954;9.506;2022-08-19T13:07:24;101253.09;;;21.38;100.00
29315;BME280;16320;53.954;9.506;2022-08-19T13:10:39;101231.72;;;21.38;100.00
29315;BME280;16320;53.954;9.506;2022-08-19T13:13:48;101218.91;;;21.32;100.00
29315;BME280;16320;53.954;9.506;2022-08-19T13:17:04;101213.56;;;21.23;100.00
29315;BME280;16320;53.954;9.506;2022-08-19T13:20:12;101228.84;;;21.11;100.00
29315;BME280;16320;53.954;9.506;2022-08-19T13:23:24;101243.03;;;21.11;100.00
29315;BME280;16320;53.954;9.506;2022-08-19T13:26:35;101252.31;;;21.17;100.00
29315;BME280;16320;53.954;9.506;2022-08-19T13:29:47;101268.31;;;21.07;100.00
29315;BME280;16320;53.954;9.506;2022-08-19T13:33:19;101272.91;;;20.95;100.00
29315;BME280;16320;53.954;9.506;2022-08-19T13:36:27;101270.91;;;20.88;100.00
29315;BME280;16320;53.954;9.506;2022-08-19T13:39:39;101278.34;;;20.84;100.00
29315;BME280;16320;53.954;9.506;2022-08-19T13:42:55;101281.31;;;20.91;100.00
29315;BME280;16320;53.954;9.506;2022-08-19T13:46:09;101275.22;;;20.79;100.00
29315;BME280;16320;53.954;9.506;2022-08-19T13:49:15;101273.81;;;20.75;100.00
29315;BME280;16320;53.954;9.506;2022-08-19T13:52:24;101263.44;;;20.81;100.00
29315;BME280;16320;53.954;9.506;2022-08-19T13:55:43;101257.25;;;20.81;100.00
29315;BME280;16320;53.954;9.506;2022-08-19T13:58:49;101250.38;;;20.78;100.00
29315;BME280;16320;53.954;9.506;2022-08-19T14:01:59;101263.59;;;20.80;100.00
29315;BME280;16320;53.954;9.506;2022-08-19T14:05:12;101253.66;;;20.92;100.00
29315;BME280;16320;53.954;9.506;2022-08-19T14:08:20;101242.44;;;20.98;100.00
29315;BME280;16320;53.954;9.506;2022-08-19T14:11:29;101231.50;;;21.01;100.00
29315;BME280;16320;53.954;9.506;2022-08-19T14:14:38;101224.59;;;20.98;100.00
29315;BME280;16320;53.954;9.506;2022-08-19T14:17:47;101231.88;;;20.96;100.00
29315;BME280;16320;53.954;9.506;2022-08-19T14:20:53;101247.03;;;20.96;100.00
29315;BME280;16320;53.954;9.506;2022-08-19T14:23:58;101253.94;;;20.98;100.00
29315;BME280;16320;53.954;9.506;2022-08-19T14:27:06;101251.28;;;20.98;100.00
29315;BME280;16320;53.954;9.506;2022-08-19T14:30:17;101219.50;;;20.95;100.00
29315;BME280;16320;53.954;9.506;2022-08-19T14:33:28;101208.56;;;20.98;100.00
29315;BME280;16320;53.954;9.506;2022-08-19T14:36:38;101214.34;;;21.03;100.00
29315;BME280;16320;53.954;9.506;2022-08-19T14:39:44;101232.50;;;21.10;100.00
29315;BME280;16320;53.954;9.506;2022-08-19T14:42:49;101229.81;;;21.10;100.00
29315;BME280;16320;53.954;9.506;2022-08-19T14:45:53;101205.09;;;21.08;100.00
29315;BME280;16320;53.954;9.506;2022-08-19T14:48:58;101205.50;;;21.03;100.00
29315;BME280;16320;53.954;9.506;2022-08-19T14:52:03;101210.97;;;21.01;100.00
29315;BME280;16320;53.954;9.506;2022-08-19T14:55:08;101217.28;;;21.00;100.00
29315;BME280;16320;53.954;9.506;2022-08-19T14:58:13;101221.91;;;20.98;100.00
29315;BME280;16320;53.954;9.506;2022-08-19T15:01:33;101221.91;;;20.98;100.00
29315;BME280;16320;53.954;9.506;2022-08-19T15:04:38;101216.56;;;20.98;100.00
29315;BME280;16320;53.954;9.506;2022-08-19T15:07:43;101215.75;;;21.08;100.00
29315;BME280;16320;53.954;9.506;2022-08-19T15:10:48;101217.75;;;21.15;100.00
29315;BME280;16320;53.954;9.506;2022-08-19T15:13:54;101221.16;;;21.27;100.00
29315;BME280;16320;53.954;9.506;2022-08-19T15:16:59;101196.41;;;21.25;100.00
29315;BME280;16320;53.954;9.506;2022-08-19T15:20:05;101180.41;;;21.35;100.00
29315;BME280;16320;53.954;9.506;2022-08-19T15:23:10;101187.81;;;21.31;100.00
29315;BME280;16320;53.954;9.506;2022-08-19T15:26:27;101192.63;;;21.37;100.00
29315;BME280;16320;53.954;9.506;2022-08-19T15:29:53;101179.25;;;21.37;100.00
29315;BME280;16320;53.954;9.506;2022-08-19T15:33:19;101191.22;;;21.33;100.00
29315;BME280;16320;53.954;9.506;2022-08-19T15:36:35;101207.25;;;21.33;100.00
29315;BME280;16320;53.954;9.506;2022-08-19T15:39:56;101229.31;;;21.35;100.00
29315;BME280;16320;53.954;9.506;2022-08-19T15:43:08;101226.94;;;21.32;100.00
29315;BME280;16320;53.954;9.506;2022-08-19T15:46:19;101228.91;;;21.30;100.00
29315;BME280;16320;53.954;9.506;2022-08-19T15:49:25;101233.50;;;21.28;100.00
29315;BME280;16320;53.954;9.506;2022-08-19T15:52:33;101242.41;;;21.29;100.00
29315;BME280;16320;53.954;9.506;2022-08-19T15:55:44;101253.50;;;21.34;100.00
29315;BME280;16320;53.954;9.506;2022-08-19T15:58:52;101252.09;;;21.39;100.00
29315;BME280;16320;53.954;9.506;2022-08-19T16:02:18;101239.47;;;21.42;100.00
29315;BME280;16320;53.954;9.506;2022-08-19T16:05:44;101232.44;;;21.40;100.00
29315;BME280;16320;53.954;9.506;2022-08-19T16:09:15;101234.13;;;21.42;100.00
29315;BME280;16320;53.954;9.506;2022-08-19T16:12:23;101238.03;;;21.37;100.00
29315;BME280;16320;53.954;9.506;2022-08-19T16:15:33;101243.66;;;21.34;100.00
29315;BME280;16320;53.954;9.506;2022-08-19T16:18:38;101244.19;;;21.28;100.00
29315;BME280;16320;53.954;9.506;2022-08-19T16:21:46;101253.22;;;21.27;100.00
29315;BME280;16320;53.954;9.506;2022-08-19T16:24:51;101214.28;;;21.34;100.00
29315;BME280;16320;53.954;9.506;2022-08-19T16:27:58;101228.91;;;21.30;100.00
29315;BME280;16320;53.954;9.506;2022-08-19T16:31:13;101245.19;;;21.17;100.00
29315;BME280;16320;53.954;9.506;2022-08-19T16:34:19;101254.28;;;21.15;100.00
29315;BME280;16320;53.954;9.506;2022-08-19T16:37:26;101258.09;;;21.12;100.00